sensor_id;sensor_type;location;lat;lon;timestamp;pressure;altitude;pressure_sealevel;temperature;humidity
62055;BME280;48653;51.742;-1.256;2023-05-08T00:01:52;101359.06;;;14.55;47.28
62055;BME280;48653;51.742;-1.256;2023-05-08T00:04:17;101358.76;;;14.70;47.37
62055;BME280;48653;51.742;-1.256;2023-05-08T00:06:42;101360.27;;;14.10;47.20
62055;BME280;48653;51.742;-1.256;2023-05-08T00:09:07;101356.39;;;14.80;46.96
62055;BME280;48653;51.742;-1.256;2023-05-08T00:11:32;101357.98;;;14.68;46.90
62055;BME280;48653;51.742;-1.256;2023-05-08T00:13:58;101355.21;;;14.70;47.83
62055;BME280;48653;51.742;-1.256;2023-05-08T00:16:23;101355.53;;;14.17;47.55
62055;BME280;48653;51.742;-1.256;2023-05-08T00:18:52;101355.89;;;14.36;47.38
62055;BME280;48653;51.742;-1.256;2023-05-08T00:21:14;101356.17;;;14.05;47.64
62055;BME280;48653;51.742;-1.256;2023-05-08T00:23:39;101354.09;;;14.37;47.81
62055;BME280;48653;51.742;-1.256;2023-05-08T00:26:04;101352.86;;;14.07;48.14
62055;BME280;48653;51.742;-1.256;2023-05-08T00:28:29;101352.70;;;14.48;48.02
62055;BME280;48653;51.742;-1.256;2023-05-08T00:30:54;101356.40;;;14.47;47.65
62055;BME280;48653;51.742;-1.256;2023-05-08T00:33:20;101357.28;;;14.48;47.82
62055;BME280;48653;51.742;-1.256;2023-05-08T00:35:45;101356.08;;;14.07;47.04
62055;BME280;48653;51.742;-1.256;2023-05-08T00:38:10;101351.20;;;14.63;47.21
62055;BME280;48653;51.742;-1.256;2023-05-08T00:40:36;101346.63;;;14.18;47.16
62055;BME280;48653;51.742;-1.256;2023-05-08T00:43:02;101345.79;;;14.41;47.66
62055;BME280;48653;51.742;-1.256;2023-05-08T00:45:32;101343.17;;;14.21;48.03
62055;BME280;48653;51.742;-1.256;2023-05-08T00:47:52;101341.23;;;14.19;47.66
62055;BME280;48653;51.742;-1.256;2023-05-08T00:50:18;101335.00;;;13.98;48.13
62055;BME280;48653;51.742;-1.256;2023-05-08T00:52:44;101332.95;;;14.19;48.33
62055;BME280;48653;51.742;-1.256;2023-05-08T00:55:09;101335.20;;;13.57;50.44
62055;BME280;48653;51.742;-1.256;2023-05-08T00:57:34;101335.63;;;13.51;49.60
62055;BME280;48653;51.742;-1.256;2023-05-08T01:00:00;101327.97;;;13.79;48.82
62055;BME280;48653;51.742;-1.256;2023-05-08T01:02:24;101323.61;;;14.66;47.75
62055;BME280;48653;51.742;-1.256;2023-05-08T01:04:51;101319.78;;;14.08;47.68
62055;BME280;48653;51.742;-1.256;2023-05-08T01:07:16;101315.17;;;13.92;47.45
62055;BME280;48653;51.742;-1.256;2023-05-08T01:09:41;101315.39;;;14.22;47.30
62055;BME280;48653;51.742;-1.256;2023-05-08T01:12:14;101319.30;;;13.93;47.34
62055;BME280;48653;51.742;-1.256;2023-05-08T01:14:39;101315.62;;;14.21;47.09
62055;BME280;48653;51.742;-1.256;2023-05-08T01:17:09;101315.10;;;14.21;46.54
62055;BME280;48653;51.742;-1.256;2023-05-08T01:21:52;101313.66;;;14.16;45.91
62055;BME280;48653;51.742;-1.256;2023-05-08T01:24:27;101315.77;;;14.36;46.08
62055;BME280;48653;51.742;-1.256;2023-05-08T01:29:26;101312.61;;;14.38;46.01
62055;BME280;48653;51.742;-1.256;2023-05-08T01:31:39;101311.52;;;14.05;46.31
62055;BME280;48653;51.742;-1.256;2023-05-08T01:33:59;101308.31;;;14.23;46.29
62055;BME280;48653;51.742;-1.256;2023-05-08T01:36:27;101309.76;;;14.04;46.75
62055;BME280;48653;51.742;-1.256;2023-05-08T01:38:54;101305.72;;;14.26;46.74
62055;BME280;48653;51.742;-1.256;2023-05-08T01:41:15;101308.18;;;14.16;47.03
62055;BME280;48653;51.742;-1.256;2023-05-08T01:43:43;101307.15;;;14.11;47.28
62055;BME280;48653;51.742;-1.256;2023-05-08T01:46:04;101304.31;;;14.10;47.61
62055;BME280;48653;51.742;-1.256;2023-05-08T01:48:31;101305.95;;;13.77;47.87
62055;BME280;48653;51.742;-1.256;2023-05-08T01:50:55;101306.24;;;13.71;47.69
62055;BME280;48653;51.742;-1.256;2023-05-08T01:53:20;101304.18;;;13.55;47.89
62055;BME280;48653;51.742;-1.256;2023-05-08T01:55:43;101303.99;;;13.56;47.87
62055;BME280;48653;51.742;-1.256;2023-05-08T01:58:08;101307.77;;;13.78;47.99
62055;BME280;48653;51.742;-1.256;2023-05-08T02:00:31;101308.47;;;13.16;48.15
62055;BME280;48653;51.742;-1.256;2023-05-08T02:02:56;101305.50;;;13.42;48.43
62055;BME280;48653;51.742;-1.256;2023-05-08T02:05:22;101304.99;;;13.79;48.21
62055;BME280;48653;51.742;-1.256;2023-05-08T02:07:48;101299.53;;;13.56;48.40
62055;BME280;48653;51.742;-1.256;2023-05-08T02:10:12;101299.19;;;13.49;48.47
62055;BME280;48653;51.742;-1.256;2023-05-08T02:12:38;101295.15;;;13.50;47.80
62055;BME280;48653;51.742;-1.256;2023-05-08T02:15:02;101291.99;;;13.56;47.27
62055;BME280;48653;51.742;-1.256;2023-05-08T02:17:27;101290.61;;;13.16;47.87
62055;BME280;48653;51.742;-1.256;2023-05-08T02:19:54;101288.65;;;13.68;47.35
62055;BME280;48653;51.742;-1.256;2023-05-08T02:22:18;101288.68;;;13.44;46.72
62055;BME280;48653;51.742;-1.256;2023-05-08T02:24:43;101287.16;;;13.56;46.68
62055;BME280;48653;51.742;-1.256;2023-05-08T02:27:08;101285.92;;;13.85;46.83
62055;BME280;48653;51.742;-1.256;2023-05-08T02:29:33;101286.68;;;13.77;46.47
62055;BME280;48653;51.742;-1.256;2023-05-08T02:32:00;101283.75;;;13.31;46.38
62055;BME280;48653;51.742;-1.256;2023-05-08T02:34:23;101285.94;;;13.40;46.16
62055;BME280;48653;51.742;-1.256;2023-05-08T02:36:49;101284.17;;;13.75;46.95
62055;BME280;48653;51.742;-1.256;2023-05-08T02:39:14;101281.77;;;13.62;47.68
62055;BME280;48653;51.742;-1.256;2023-05-08T02:41:40;101284.05;;;13.36;48.33
62055;BME280;48653;51.742;-1.256;2023-05-08T02:44:04;101281.74;;;13.26;48.46
62055;BME280;48653;51.742;-1.256;2023-05-08T02:46:37;101280.48;;;13.09;48.80
62055;BME280;48653;51.742;-1.256;2023-05-08T02:48:57;101278.91;;;13.52;48.37
62055;BME280;48653;51.742;-1.256;2023-05-08T02:51:24;101279.51;;;13.54;48.32
62055;BME280;48653;51.742;-1.256;2023-05-08T02:53:49;101280.87;;;13.17;48.19
62055;BME280;48653;51.742;-1.256;2023-05-08T02:56:17;101278.88;;;13.18;48.85
62055;BME280;48653;51.742;-1.256;2023-05-08T02:58:40;101274.34;;;13.41;48.55
62055;BME280;48653;51.742;-1.256;2023-05-08T03:01:03;101273.89;;;13.18;48.70
62055;BME280;48653;51.742;-1.256;2023-05-08T03:03:31;101270.22;;;13.06;49.53
62055;BME280;48653;51.742;-1.256;2023-05-08T03:05:52;101267.01;;;12.87;49.66
62055;BME280;48653;51.742;-1.256;2023-05-08T03:08:20;101267.74;;;13.20;49.29
62055;BME280;48653;51.742;-1.256;2023-05-08T03:10:42;101264.50;;;13.03;49.61
62055;BME280;48653;51.742;-1.256;2023-05-08T03:13:06;101267.36;;;12.94;50.05
62055;BME280;48653;51.742;-1.256;2023-05-08T03:15:33;101263.61;;;12.38;51.28
62055;BME280;48653;51.742;-1.256;2023-05-08T03:18:01;101263.87;;;12.70;51.24
62055;BME280;48653;51.742;-1.256;2023-05-08T03:20:23;101261.95;;;12.45;52.23
62055;BME280;48653;51.742;-1.256;2023-05-08T03:22:48;101262.61;;;12.37;52.28
62055;BME280;48653;51.742;-1.256;2023-05-08T03:25:13;101263.11;;;12.56;51.65
62055;BME280;48653;51.742;-1.256;2023-05-08T03:27:39;101265.30;;;12.88;50.58
62055;BME280;48653;51.742;-1.256;2023-05-08T03:30:05;101268.83;;;13.07;50.21
62055;BME280;48653;51.742;-1.256;2023-05-08T03:32:31;101261.46;;;13.51;49.37
62055;BME280;48653;51.742;-1.256;2023-05-08T03:34:54;101257.66;;;13.53;49.52
62055;BME280;48653;51.742;-1.256;2023-05-08T03:37:20;101254.24;;;12.63;51.92
62055;BME280;48653;51.742;-1.256;2023-05-08T03:39:45;101254.27;;;13.37;50.54
62055;BME280;48653;51.742;-1.256;2023-05-08T03:42:11;101252.12;;;12.97;51.28
62055;BME280;48653;51.742;-1.256;2023-05-08T03:44:36;101252.74;;;12.20;52.81
62055;BME280;48653;51.742;-1.256;2023-05-08T03:47:01;101249.51;;;12.48;52.56
62055;BME280;48653;51.742;-1.256;2023-05-08T03:49:28;101250.12;;;12.58;52.26
62055;BME280;48653;51.742;-1.256;2023-05-08T03:51:52;101248.24;;;12.62;53.44
62055;BME280;48653;51.742;-1.256;2023-05-08T03:54:16;101251.27;;;12.56;53.67
62055;BME280;48653;51.742;-1.256;2023-05-08T03:56:42;101253.96;;;12.75;53.14
62055;BME280;48653;51.742;-1.256;2023-05-08T03:59:13;101251.32;;;12.71;52.13
62055;BME280;48653;51.742;-1.256;2023-05-08T04:01:37;101246.34;;;12.54;53.66
62055;BME280;48653;51.742;-1.256;2023-05-08T04:04:03;101247.17;;;12.19;53.70
62055;BME280;48653;51.742;-1.256;2023-05-08T04:06:28;101246.64;;;12.24;53.79
62055;BME280;48653;51.742;-1.256;2023-05-08T04:08:54;101242.23;;;12.48;53.08
62055;BME280;48653;51.742;-1.256;2023-05-08T04:11:22;101242.02;;;12.54;53.52
62055;BME280;48653;51.742;-1.256;2023-05-08T04:13:44;101243.67;;;12.75;52.80
62055;BME280;48653;51.742;-1.256;2023-05-08T04:16:08;101242.24;;;12.69;52.90
62055;BME280;48653;51.742;-1.256;2023-05-08T04:18:33;101243.07;;;13.03;51.62
62055;BME280;48653;51.742;-1.256;2023-05-08T04:20:55;101240.17;;;12.99;52.09
62055;BME280;48653;51.742;-1.256;2023-05-08T04:23:21;101238.67;;;12.92;51.84
62055;BME280;48653;51.742;-1.256;2023-05-08T04:25:46;101241.15;;;13.00;52.08
62055;BME280;48653;51.742;-1.256;2023-05-08T04:28:10;101237.97;;;13.12;52.19
62055;BME280;48653;51.742;-1.256;2023-05-08T04:30:36;101240.86;;;12.73;52.20
62055;BME280;48653;51.742;-1.256;2023-05-08T04:33:03;101241.78;;;13.09;51.95
62055;BME280;48653;51.742;-1.256;2023-05-08T04:35:26;101242.79;;;12.59;53.43
62055;BME280;48653;51.742;-1.256;2023-05-08T04:37:52;101245.61;;;13.17;51.90
62055;BME280;48653;51.742;-1.256;2023-05-08T04:40:17;101242.37;;;12.71;53.18
62055;BME280;48653;51.742;-1.256;2023-05-08T04:42:42;101245.30;;;13.23;51.94
62055;BME280;48653;51.742;-1.256;2023-05-08T04:45:08;101246.39;;;13.05;52.58
62055;BME280;48653;51.742;-1.256;2023-05-08T04:47:32;101243.06;;;12.83;52.84
62055;BME280;48653;51.742;-1.256;2023-05-08T04:49:58;101247.87;;;13.13;52.19
62055;BME280;48653;51.742;-1.256;2023-05-08T04:52:23;101249.72;;;13.49;51.91
62055;BME280;48653;51.742;-1.256;2023-05-08T04:54:48;101248.86;;;13.42;51.62
62055;BME280;48653;51.742;-1.256;2023-05-08T04:57:13;101250.92;;;13.40;51.72
62055;BME280;48653;51.742;-1.256;2023-05-08T04:59:38;101251.68;;;13.26;52.30
62055;BME280;48653;51.742;-1.256;2023-05-08T05:02:04;101254.51;;;13.43;52.40
62055;BME280;48653;51.742;-1.256;2023-05-08T05:04:29;101255.46;;;13.25;51.90
62055;BME280;48653;51.742;-1.256;2023-05-08T05:06:54;101255.68;;;13.00;52.59
62055;BME280;48653;51.742;-1.256;2023-05-08T05:09:20;101261.64;;;13.16;52.30
62055;BME280;48653;51.742;-1.256;2023-05-08T05:11:45;101261.07;;;13.45;52.11
62055;BME280;48653;51.742;-1.256;2023-05-08T05:14:10;101257.88;;;12.95;52.28
62055;BME280;48653;51.742;-1.256;2023-05-08T05:16:36;101264.10;;;12.97;52.65
62055;BME280;48653;51.742;-1.256;2023-05-08T05:19:01;101265.51;;;12.91;52.90
62055;BME280;48653;51.742;-1.256;2023-05-08T05:21:27;101266.07;;;13.11;52.10
62055;BME280;48653;51.742;-1.256;2023-05-08T05:23:52;101271.73;;;13.31;52.20
62055;BME280;48653;51.742;-1.256;2023-05-08T05:26:17;101272.49;;;13.50;51.86
62055;BME280;48653;51.742;-1.256;2023-05-08T05:28:42;101273.98;;;13.40;51.51
62055;BME280;48653;51.742;-1.256;2023-05-08T05:31:07;101276.79;;;13.63;51.71
62055;BME280;48653;51.742;-1.256;2023-05-08T05:33:32;101277.33;;;13.55;51.62
62055;BME280;48653;51.742;-1.256;2023-05-08T05:35:58;101278.09;;;13.44;51.78
62055;BME280;48653;51.742;-1.256;2023-05-08T05:38:23;101277.28;;;13.59;51.52
62055;BME280;48653;51.742;-1.256;2023-05-08T05:40:48;101276.88;;;13.76;51.38
62055;BME280;48653;51.742;-1.256;2023-05-08T05:43:13;101279.94;;;13.46;51.48
62055;BME280;48653;51.742;-1.256;2023-05-08T05:45:38;101277.97;;;12.88;52.62
62055;BME280;48653;51.742;-1.256;2023-05-08T05:48:03;101281.11;;;13.29;51.63
62055;BME280;48653;51.742;-1.256;2023-05-08T05:50:28;101281.39;;;13.99;50.85
62055;BME280;48653;51.742;-1.256;2023-05-08T05:52:53;101282.39;;;13.70;50.85
62055;BME280;48653;51.742;-1.256;2023-05-08T05:55:18;101281.69;;;13.47;51.43
62055;BME280;48653;51.742;-1.256;2023-05-08T05:57:43;101288.44;;;13.37;52.17
62055;BME280;48653;51.742;-1.256;2023-05-08T06:00:09;101283.18;;;13.39;52.55
62055;BME280;48653;51.742;-1.256;2023-05-08T06:02:35;101283.57;;;13.50;51.28
62055;BME280;48653;51.742;-1.256;2023-05-08T06:04:59;101283.18;;;13.83;50.59
62055;BME280;48653;51.742;-1.256;2023-05-08T06:07:24;101284.45;;;13.48;51.34
62055;BME280;48653;51.742;-1.256;2023-05-08T06:09:49;101286.82;;;13.50;51.14
62055;BME280;48653;51.742;-1.256;2023-05-08T06:12:14;101282.73;;;13.45;51.31
62055;BME280;48653;51.742;-1.256;2023-05-08T06:14:39;101282.18;;;14.51;49.97
62055;BME280;48653;51.742;-1.256;2023-05-08T06:17:04;101277.59;;;14.44;49.45
62055;BME280;48653;51.742;-1.256;2023-05-08T06:19:30;101281.68;;;14.48;49.36
62055;BME280;48653;51.742;-1.256;2023-05-08T06:21:55;101280.48;;;13.51;50.27
62055;BME280;48653;51.742;-1.256;2023-05-08T06:24:20;101279.10;;;13.73;50.02
62055;BME280;48653;51.742;-1.256;2023-05-08T06:26:45;101281.08;;;13.60;50.35
62055;BME280;48653;51.742;-1.256;2023-05-08T06:29:10;101278.77;;;13.86;50.14
62055;BME280;48653;51.742;-1.256;2023-05-08T06:31:36;101278.44;;;13.93;49.64
62055;BME280;48653;51.742;-1.256;2023-05-08T06:34:01;101272.20;;;14.38;48.86
62055;BME280;48653;51.742;-1.256;2023-05-08T06:36:26;101274.81;;;14.48;48.45
62055;BME280;48653;51.742;-1.256;2023-05-08T06:38:51;101274.64;;;13.70;50.38
62055;BME280;48653;51.742;-1.256;2023-05-08T06:41:16;101278.94;;;13.35;51.54
62055;BME280;48653;51.742;-1.256;2023-05-08T06:43:42;101278.96;;;13.12;51.94
62055;BME280;48653;51.742;-1.256;2023-05-08T06:46:07;101278.14;;;13.79;50.06
62055;BME280;48653;51.742;-1.256;2023-05-08T06:48:32;101272.42;;;13.83;49.90
62055;BME280;48653;51.742;-1.256;2023-05-08T06:51:04;101275.16;;;14.14;49.41
62055;BME280;48653;51.742;-1.256;2023-05-08T06:53:23;101273.35;;;14.18;49.13
62055;BME280;48653;51.742;-1.256;2023-05-08T06:55:48;101276.89;;;14.63;48.54
62055;BME280;48653;51.742;-1.256;2023-05-08T06:58:14;101274.22;;;14.84;48.05
62055;BME280;48653;51.742;-1.256;2023-05-08T07:00:39;101277.17;;;14.43;48.71
62055;BME280;48653;51.742;-1.256;2023-05-08T07:03:04;101280.98;;;14.82;47.49
62055;BME280;48653;51.742;-1.256;2023-05-08T07:05:29;101277.02;;;15.19;46.88
62055;BME280;48653;51.742;-1.256;2023-05-08T07:07:54;101278.30;;;14.91;47.50
62055;BME280;48653;51.742;-1.256;2023-05-08T07:10:20;101274.55;;;14.76;47.17
62055;BME280;48653;51.742;-1.256;2023-05-08T07:12:45;101271.67;;;14.97;47.36
62055;BME280;48653;51.742;-1.256;2023-05-08T07:15:11;101267.60;;;15.07;47.65
62055;BME280;48653;51.742;-1.256;2023-05-08T07:17:35;101272.80;;;14.55;47.76
62055;BME280;48653;51.742;-1.256;2023-05-08T07:20:00;101274.00;;;14.04;49.04
62055;BME280;48653;51.742;-1.256;2023-05-08T07:22:25;101267.72;;;14.51;48.12
62055;BME280;48653;51.742;-1.256;2023-05-08T07:24:51;101269.10;;;14.34;48.80
62055;BME280;48653;51.742;-1.256;2023-05-08T07:27:16;101274.60;;;14.12;49.69
62055;BME280;48653;51.742;-1.256;2023-05-08T07:29:42;101274.38;;;14.18;49.08
62055;BME280;48653;51.742;-1.256;2023-05-08T07:32:07;101276.83;;;14.16;49.19
62055;BME280;48653;51.742;-1.256;2023-05-08T07:34:32;101269.70;;;14.65;48.34
62055;BME280;48653;51.742;-1.256;2023-05-08T07:36:59;101274.33;;;14.09;49.80
62055;BME280;48653;51.742;-1.256;2023-05-08T07:39:23;101268.62;;;14.77;49.96
62055;BME280;48653;51.742;-1.256;2023-05-08T07:41:48;101269.17;;;14.92;49.22
62055;BME280;48653;51.742;-1.256;2023-05-08T07:44:14;101273.89;;;14.29;50.86
62055;BME280;48653;51.742;-1.256;2023-05-08T07:46:39;101271.58;;;14.38;50.93
62055;BME280;48653;51.742;-1.256;2023-05-08T07:49:04;101271.64;;;14.20;50.75
62055;BME280;48653;51.742;-1.256;2023-05-08T07:51:30;101270.49;;;14.81;50.87
62055;BME280;48653;51.742;-1.256;2023-05-08T07:53:55;101267.24;;;14.65;50.61
62055;BME280;48653;51.742;-1.256;2023-05-08T07:56:21;101270.31;;;15.49;49.94
62055;BME280;48653;51.742;-1.256;2023-05-08T07:58:46;101273.30;;;14.29;51.47
62055;BME280;48653;51.742;-1.256;2023-05-08T08:01:11;101273.75;;;14.14;52.11
62055;BME280;48653;51.742;-1.256;2023-05-08T08:03:36;101272.23;;;14.47;51.85
62055;BME280;48653;51.742;-1.256;2023-05-08T08:06:03;101274.26;;;14.24;51.19
62055;BME280;48653;51.742;-1.256;2023-05-08T08:08:27;101275.23;;;14.73;51.99
62055;BME280;48653;51.742;-1.256;2023-05-08T08:10:53;101268.56;;;14.62;51.54
62055;BME280;48653;51.742;-1.256;2023-05-08T08:13:17;101269.57;;;15.02;50.85
62055;BME280;48653;51.742;-1.256;2023-05-08T08:15:43;101269.83;;;15.33;50.40
62055;BME280;48653;51.742;-1.256;2023-05-08T08:18:08;101267.12;;;15.11;51.21
62055;BME280;48653;51.742;-1.256;2023-05-08T08:20:34;101264.75;;;14.82;51.18
62055;BME280;48653;51.742;-1.256;2023-05-08T08:22:59;101266.12;;;15.41;51.16
62055;BME280;48653;51.742;-1.256;2023-05-08T08:25:24;101265.86;;;14.98;51.43
62055;BME280;48653;51.742;-1.256;2023-05-08T08:27:49;101266.03;;;14.53;52.53
62055;BME280;48653;51.742;-1.256;2023-05-08T08:30:14;101263.72;;;14.57;52.04
62055;BME280;48653;51.742;-1.256;2023-05-08T08:32:40;101263.23;;;14.70;52.03
62055;BME280;48653;51.742;-1.256;2023-05-08T08:35:06;101264.02;;;15.00;51.42
62055;BME280;48653;51.742;-1.256;2023-05-08T08:37:31;101260.14;;;15.12;51.49
62055;BME280;48653;51.742;-1.256;2023-05-08T08:39:56;101260.13;;;15.32;51.40
62055;BME280;48653;51.742;-1.256;2023-05-08T08:42:22;101256.30;;;14.97;51.94
62055;BME280;48653;51.742;-1.256;2023-05-08T08:44:47;101253.84;;;15.04;51.68
62055;BME280;48653;51.742;-1.256;2023-05-08T08:47:13;101257.58;;;15.18;50.91
62055;BME280;48653;51.742;-1.256;2023-05-08T08:49:42;101252.53;;;14.51;53.38
62055;BME280;48653;51.742;-1.256;2023-05-08T08:52:09;101252.24;;;15.23;51.85
62055;BME280;48653;51.742;-1.256;2023-05-08T08:54:30;101247.94;;;15.34;51.63
62055;BME280;48653;51.742;-1.256;2023-05-08T08:56:55;101246.82;;;15.84;50.87
62055;BME280;48653;51.742;-1.256;2023-05-08T08:59:20;101250.31;;;15.93;51.01
62055;BME280;48653;51.742;-1.256;2023-05-08T09:01:49;101251.11;;;15.48;50.71
62055;BME280;48653;51.742;-1.256;2023-05-08T09:04:11;101249.24;;;15.42;51.52
62055;BME280;48653;51.742;-1.256;2023-05-08T09:06:36;101247.71;;;15.35;51.25
62055;BME280;48653;51.742;-1.256;2023-05-08T09:09:02;101244.94;;;15.69;51.70
62055;BME280;48653;51.742;-1.256;2023-05-08T09:11:26;101244.64;;;15.61;51.96
62055;BME280;48653;51.742;-1.256;2023-05-08T09:13:53;101242.93;;;15.43;52.73
62055;BME280;48653;51.742;-1.256;2023-05-08T09:16:17;101242.64;;;15.50;52.87
62055;BME280;48653;51.742;-1.256;2023-05-08T09:18:43;101237.76;;;15.48;51.96
62055;BME280;48653;51.742;-1.256;2023-05-08T09:21:07;101240.25;;;14.61;53.99
62055;BME280;48653;51.742;-1.256;2023-05-08T09:23:34;101240.16;;;15.19;53.99
62055;BME280;48653;51.742;-1.256;2023-05-08T09:25:58;101238.04;;;15.25;53.61
62055;BME280;48653;51.742;-1.256;2023-05-08T09:28:24;101234.07;;;15.30;53.64
62055;BME280;48653;51.742;-1.256;2023-05-08T09:30:49;101232.34;;;15.61;53.33
62055;BME280;48653;51.742;-1.256;2023-05-08T09:33:13;101229.49;;;14.97;54.15
62055;BME280;48653;51.742;-1.256;2023-05-08T09:35:38;101228.08;;;15.09;53.88
62055;BME280;48653;51.742;-1.256;2023-05-08T09:38:03;101222.26;;;15.58;53.40
62055;BME280;48653;51.742;-1.256;2023-05-08T09:40:28;101226.80;;;15.68;53.39
62055;BME280;48653;51.742;-1.256;2023-05-08T09:42:53;101219.88;;;14.66;55.30
62055;BME280;48653;51.742;-1.256;2023-05-08T09:45:29;101217.70;;;14.88;55.60
62055;BME280;48653;51.742;-1.256;2023-05-08T09:47:47;101207.14;;;14.74;56.13
62055;BME280;48653;51.742;-1.256;2023-05-08T09:50:10;101197.82;;;15.66;54.23
62055;BME280;48653;51.742;-1.256;2023-05-08T09:52:35;101191.94;;;15.97;53.97
62055;BME280;48653;51.742;-1.256;2023-05-08T09:55:00;101188.23;;;15.53;55.08
62055;BME280;48653;51.742;-1.256;2023-05-08T09:57:24;101183.10;;;15.74;54.24
62055;BME280;48653;51.742;-1.256;2023-05-08T09:59:49;101185.61;;;16.32;52.00
62055;BME280;48653;51.742;-1.256;2023-05-08T10:02:14;101184.20;;;16.53;52.31
62055;BME280;48653;51.742;-1.256;2023-05-08T10:04:39;101183.08;;;16.87;52.07
62055;BME280;48653;51.742;-1.256;2023-05-08T10:07:04;101184.62;;;16.25;52.07
62055;BME280;48653;51.742;-1.256;2023-05-08T10:09:29;101181.44;;;15.88;52.68
62055;BME280;48653;51.742;-1.256;2023-05-08T10:11:54;101182.04;;;15.87;53.87
62055;BME280;48653;51.742;-1.256;2023-05-08T10:14:20;101181.22;;;15.95;53.50
62055;BME280;48653;51.742;-1.256;2023-05-08T10:16:46;101181.07;;;16.21;51.99
62055;BME280;48653;51.742;-1.256;2023-05-08T10:19:12;101182.44;;;16.30;52.61
62055;BME280;48653;51.742;-1.256;2023-05-08T10:21:35;101187.20;;;15.79;52.05
62055;BME280;48653;51.742;-1.256;2023-05-08T10:24:03;101194.62;;;15.63;53.08
62055;BME280;48653;51.742;-1.256;2023-05-08T10:26:29;101195.33;;;15.41;52.55
62055;BME280;48653;51.742;-1.256;2023-05-08T10:28:54;101195.53;;;15.72;52.32
62055;BME280;48653;51.742;-1.256;2023-05-08T10:31:18;101195.12;;;15.56;52.80
62055;BME280;48653;51.742;-1.256;2023-05-08T10:33:41;101192.29;;;15.94;52.10
62055;BME280;48653;51.742;-1.256;2023-05-08T10:36:06;101190.88;;;15.41;53.04
62055;BME280;48653;51.742;-1.256;2023-05-08T10:38:30;101190.92;;;15.75;52.41
62055;BME280;48653;51.742;-1.256;2023-05-08T10:40:59;101197.87;;;15.61;52.06
62055;BME280;48653;51.742;-1.256;2023-05-08T10:43:20;101198.97;;;15.61;54.01
62055;BME280;48653;51.742;-1.256;2023-05-08T10:45:45;101198.21;;;14.65;54.57
62055;BME280;48653;51.742;-1.256;2023-05-08T10:48:18;101205.22;;;15.11;55.16
62055;BME280;48653;51.742;-1.256;2023-05-08T10:50:47;101209.43;;;15.51;54.54
62055;BME280;48653;51.742;-1.256;2023-05-08T10:53:06;101213.32;;;15.64;53.77
62055;BME280;48653;51.742;-1.256;2023-05-08T10:55:29;101212.30;;;14.20;55.72
62055;BME280;48653;51.742;-1.256;2023-05-08T10:58:01;101208.77;;;14.42;55.94
62055;BME280;48653;51.742;-1.256;2023-05-08T11:00:16;101197.39;;;14.64;55.37
62055;BME280;48653;51.742;-1.256;2023-05-08T11:02:40;101194.23;;;14.54;56.69
62055;BME280;48653;51.742;-1.256;2023-05-08T11:05:14;101187.41;;;14.14;56.29
62055;BME280;48653;51.742;-1.256;2023-05-08T11:10:05;101186.41;;;14.62;55.86
62055;BME280;48653;51.742;-1.256;2023-05-08T11:12:24;101185.43;;;14.82;55.70
62055;BME280;48653;51.742;-1.256;2023-05-08T11:14:54;101186.10;;;15.74;53.89
62055;BME280;48653;51.742;-1.256;2023-05-08T11:17:10;101192.11;;;15.18;53.70
62055;BME280;48653;51.742;-1.256;2023-05-08T11:19:37;101196.41;;;15.62;53.25
62055;BME280;48653;51.742;-1.256;2023-05-08T11:22:12;101200.84;;;15.48;53.03
62055;BME280;48653;51.742;-1.256;2023-05-08T11:24:32;101204.71;;;15.58;52.13
62055;BME280;48653;51.742;-1.256;2023-05-08T11:26:51;101206.30;;;16.13;51.62
62055;BME280;48653;51.742;-1.256;2023-05-08T11:29:16;101202.16;;;16.09;51.06
62055;BME280;48653;51.742;-1.256;2023-05-08T11:31:49;101179.85;;;16.19;50.56
62055;BME280;48653;51.742;-1.256;2023-05-08T11:36:31;101177.56;;;15.01;53.79
62055;BME280;48653;51.742;-1.256;2023-05-08T11:39:07;101168.51;;;14.59;55.10
62055;BME280;48653;51.742;-1.256;2023-05-08T11:41:22;101155.42;;;15.13;54.62
62055;BME280;48653;51.742;-1.256;2023-05-08T11:46:14;101162.67;;;15.61;52.73
62055;BME280;48653;51.742;-1.256;2023-05-08T11:48:38;101165.39;;;15.86;52.00
62055;BME280;48653;51.742;-1.256;2023-05-08T11:51:02;101166.03;;;14.99;54.83
62055;BME280;48653;51.742;-1.256;2023-05-08T11:53:26;101155.58;;;15.07;54.44
62055;BME280;48653;51.742;-1.256;2023-05-08T11:55:52;101145.48;;;15.95;53.26
62055;BME280;48653;51.742;-1.256;2023-05-08T11:58:16;101146.38;;;15.80;52.65
62055;BME280;48653;51.742;-1.256;2023-05-08T12:00:43;101151.57;;;16.49;50.97
62055;BME280;48653;51.742;-1.256;2023-05-08T12:03:06;101159.11;;;16.34;50.74
62055;BME280;48653;51.742;-1.256;2023-05-08T12:05:31;101160.77;;;15.57;52.03
62055;BME280;48653;51.742;-1.256;2023-05-08T12:07:58;101157.37;;;16.46;50.99
62055;BME280;48653;51.742;-1.256;2023-05-08T12:10:21;101152.14;;;15.63;52.31
62055;BME280;48653;51.742;-1.256;2023-05-08T12:12:46;101150.65;;;16.38;50.81
62055;BME280;48653;51.742;-1.256;2023-05-08T12:15:13;101151.91;;;17.12;49.50
62055;BME280;48653;51.742;-1.256;2023-05-08T12:17:38;101152.20;;;16.77;49.81
62055;BME280;48653;51.742;-1.256;2023-05-08T12:20:11;101143.76;;;16.16;50.65
62055;BME280;48653;51.742;-1.256;2023-05-08T12:22:32;101143.90;;;16.85;48.92
62055;BME280;48653;51.742;-1.256;2023-05-08T12:24:52;101140.46;;;16.90;48.89
62055;BME280;48653;51.742;-1.256;2023-05-08T12:27:17;101147.45;;;16.77;49.71
62055;BME280;48653;51.742;-1.256;2023-05-08T12:29:44;101144.24;;;16.03;51.62
62055;BME280;48653;51.742;-1.256;2023-05-08T12:32:07;101139.91;;;16.19;51.94
62055;BME280;48653;51.742;-1.256;2023-05-08T12:34:32;101139.10;;;15.99;52.23
62055;BME280;48653;51.742;-1.256;2023-05-08T12:37:02;101137.94;;;16.20;52.36
62055;BME280;48653;51.742;-1.256;2023-05-08T12:39:22;101142.18;;;16.85;51.06
62055;BME280;48653;51.742;-1.256;2023-05-08T12:41:48;101157.76;;;16.44;51.42